Airfield :
LOGIN :

Register | Disclaimer

   EN    FR    IT 

 










Legend :    VFR   Marginal VFR   IFR   Intensive IFR   Very Intensive IFR
Visi :
Ceiling :
>= 8 km
>= 3000ft
5 to 8 km
1000 to 3000 ft
1500m to 5 km
500 to 1000 ft
800 to 1500m
200 to 500 ft
< 800m
< 200 ft
Symbols :   Thunderstorms  Fog  Heavy snow  Heavy precipitations  Wind > 20 kt
SIGMETs :     Misc.  Thunderstorms  Icing  Turbulence  Mountain Waves  Volcanic Ashes







- Airport Elevation : 243 ft
- IATA code : HOV


ENOV - Ørsta-Volda , Hovden

CURRENT METAR :
  • 230920Z VRB04KT 9999 FEW018 SCT044 BKN060 17/13 Q1012 RMK WIND 2175FT 15006KT

EXPIRED METARs :
  • 230850Z VRB04KT 9999 FEW032 SCT047 BKN060 16/12 Q1012 RMK WIND 2175FT 15006KT
  • 230820Z VRB02KT 9999 FEW043 BKN053 17/13 Q1011 RMK WIND 2175FT 14008KT
  • 230750Z VRB02KT 9999 SCT041 BKN057 17/12 Q1011 RMK WIND 2175FT 14008KT
  • 230720Z VRB02KT 9999 FEW013 SCT041 BKN059 15/12 Q1011 RMK WIND 2175FT 18009KT
  • 230650Z VRB01KT 9999 SCT036 BKN059 16/12 Q1011 RMK WIND 2175FT 20007KT

TAF N/A
No reported NOTAMs for that airfield.



MET'MAP, your aeronautical weather chart ! - Copyright ORBIFLY December 2007 - Disclaimer

ORBIFLY MET'MAP TEAM :

Programming & Development : Alexandra Zaïnal
Concept & Development : Baudouin d'Aumeries
Co-Development & Prog : Marc-Olivier Méhu
Technical & hardware support : Manuel Goepfert

Contact : metmap@orbifly.com




SOURCES & CREDITS :

   NOAA